MBU6MU EDDH-GCFV
Flight info
| Callsign | MBU6MU |
|---|---|
| Flight time | 4h 50m |
| Altitude | 32000 |
| Route | HABFU1C HABFU Y348 DOMEG DCT RASCA DCT FAMEN/N0458F310 DCT AHVEC/N0457F330 UN857 DISAK DCT ARKIP DCT ARNAV DCT LMG DCT UVELI DCT OSMOB DCT VAVIX DCT BTZ DCT URUNA P181 NEA L14 ADINO DCT ELVAR DCT ODPAK DCT IXOLI DCT TAKAV/N0464F350 DCT VEDOD UN857 TERTO |
| Aircraft | A321/M-SDE3FGHIRWY/LB1 |
Departure
| Time | 2026-05-08 18:46 |
|---|---|
| Airport | Hamburg Helmut Schmidt Airport (EDDH) |
Arrival
| Time | 2026-05-08 23:37 |
|---|---|
| Airport | Fuerteventura Airport (GCFV) |
| Time | Latitude | Longitude | Altitude | Speed | Heading |
|---|---|---|---|---|---|
| 2026-05-08 17:58 | 53.63213 | 9.99971 | 49 ft | 0 kts | 321° |
| 2026-05-08 18:34 | 53.63199 | 9.99990 | 48 ft | 3 kts | 320° |
| 2026-05-08 18:34 | 53.63185 | 10.00019 | 43 ft | 4 kts | 272° |
| 2026-05-08 18:34 | 53.63192 | 10.00058 | 45 ft | 4 kts | 233° |
| 2026-05-08 18:35 | 53.63199 | 10.00073 | 45 ft | 1 kts | 231° |
| 2026-05-08 18:35 | 53.63199 | 10.00074 | 45 ft | 0 kts | 231° |
| 2026-05-08 18:38 | 53.63199 | 10.00073 | 48 ft | 1 kts | 231° |
| 2026-05-08 18:38 | 53.63175 | 10.00024 | 48 ft | 8 kts | 231° |
| 2026-05-08 18:38 | 53.63127 | 9.99925 | 48 ft | 11 kts | 231° |
| 2026-05-08 18:39 | 53.63067 | 9.99897 | 45 ft | 9 kts | 158° |
| 2026-05-08 18:39 | 53.63028 | 9.99929 | 48 ft | 12 kts | 153° |
| 2026-05-08 18:39 | 53.62945 | 10.00000 | 48 ft | 13 kts | 153° |
| 2026-05-08 18:39 | 53.62844 | 10.00004 | 46 ft | 10 kts | 212° |
| 2026-05-08 18:40 | 53.62805 | 9.99962 | 45 ft | 10 kts | 211° |
| 2026-05-08 18:40 | 53.62724 | 9.99885 | 46 ft | 19 kts | 208° |
| 2026-05-08 18:40 | 53.62638 | 9.99741 | 47 ft | 16 kts | 253° |
| 2026-05-08 18:40 | 53.62616 | 9.99566 | 47 ft | 14 kts | 259° |
| 2026-05-08 18:41 | 53.62596 | 9.99386 | 47 ft | 19 kts | 259° |
| 2026-05-08 18:41 | 53.62568 | 9.99136 | 47 ft | 21 kts | 259° |
| 2026-05-08 18:41 | 53.62542 | 9.98903 | 47 ft | 19 kts | 259° |
| 2026-05-08 18:41 | 53.62518 | 9.98692 | 47 ft | 17 kts | 259° |
| 2026-05-08 18:42 | 53.62497 | 9.98501 | 47 ft | 17 kts | 259° |
| 2026-05-08 18:42 | 53.62470 | 9.98263 | 47 ft | 22 kts | 258° |
| 2026-05-08 18:42 | 53.62407 | 9.98043 | 47 ft | 20 kts | 231° |
| 2026-05-08 18:42 | 53.62309 | 9.97843 | 47 ft | 23 kts | 230° |
| 2026-05-08 18:43 | 53.62208 | 9.97638 | 47 ft | 23 kts | 230° |
| 2026-05-08 18:43 | 53.62109 | 9.97440 | 47 ft | 21 kts | 230° |
| 2026-05-08 18:43 | 53.62019 | 9.97259 | 47 ft | 19 kts | 230° |
| 2026-05-08 18:43 | 53.61938 | 9.97094 | 47 ft | 17 kts | 230° |
| 2026-05-08 18:44 | 53.61853 | 9.96922 | 47 ft | 22 kts | 230° |
| 2026-05-08 18:44 | 53.61758 | 9.96729 | 47 ft | 20 kts | 230° |
| 2026-05-08 18:44 | 53.61681 | 9.96567 | 47 ft | 13 kts | 242° |
| 2026-05-08 18:44 | 53.61693 | 9.96443 | 46 ft | 10 kts | 314° |
| 2026-05-08 18:45 | 53.61760 | 9.96418 | 46 ft | 13 kts | 3° |
| 2026-05-08 18:45 | 53.61867 | 9.96458 | 44 ft | 17 kts | 35° |
| 2026-05-08 18:45 | 53.61973 | 9.96665 | 43 ft | 45 kts | 51° |
| 2026-05-08 18:45 | 53.62321 | 9.97375 | 40 ft | 108 kts | 50° |
| 2026-05-08 18:46 | 53.62910 | 9.98572 | 44 ft | 155 kts | 50° |
| 2026-05-08 18:46 | 53.63653 | 10.00064 | 409 ft | 166 kts | 49° |
| 2026-05-08 18:46 | 53.64392 | 10.01536 | 1117 ft | 165 kts | 51° |
| 2026-05-08 18:46 | 53.65145 | 10.03036 | 1709 ft | 169 kts | 52° |
| 2026-05-08 18:47 | 53.65930 | 10.04606 | 1992 ft | 184 kts | 52° |
| 2026-05-08 18:47 | 53.66779 | 10.06347 | 2097 ft | 201 kts | 53° |
| 2026-05-08 18:47 | 53.67685 | 10.08213 | 2411 ft | 209 kts | 53° |
| 2026-05-08 18:47 | 53.68806 | 10.09793 | 2786 ft | 217 kts | 26° |
| 2026-05-08 18:48 | 53.70329 | 10.10171 | 3250 ft | 224 kts | 353° |
| 2026-05-08 18:48 | 53.71775 | 10.09103 | 3567 ft | 239 kts | 319° |
| 2026-05-08 18:48 | 53.72755 | 10.06724 | 3694 ft | 261 kts | 295° |
| 2026-05-08 18:48 | 53.73561 | 10.03906 | 4167 ft | 270 kts | 296° |
| 2026-05-08 18:49 | 53.74376 | 10.01027 | 4815 ft | 273 kts | 290° |
| 2026-05-08 18:49 | 53.74781 | 9.97895 | 5459 ft | 274 kts | 271° |
| 2026-05-08 18:49 | 53.74561 | 9.94712 | 6105 ft | 275 kts | 252° |
| 2026-05-08 18:49 | 53.73841 | 9.91709 | 6731 ft | 278 kts | 245° |
| 2026-05-08 18:50 | 53.73056 | 9.88687 | 7324 ft | 281 kts | 246° |
| 2026-05-08 18:50 | 53.72286 | 9.85661 | 7946 ft | 283 kts | 246° |
| 2026-05-08 18:50 | 53.71513 | 9.82592 | 8561 ft | 285 kts | 246° |
| 2026-05-08 18:50 | 53.70735 | 9.79495 | 9166 ft | 287 kts | 246° |
| 2026-05-08 18:51 | 53.69953 | 9.76388 | 9769 ft | 290 kts | 246° |
| 2026-05-08 18:51 | 53.69155 | 9.73240 | 10349 ft | 293 kts | 246° |
| 2026-05-08 18:51 | 53.68324 | 9.69977 | 10491 ft | 312 kts | 246° |
| 2026-05-08 18:51 | 53.67446 | 9.66522 | 10618 ft | 330 kts | 246° |
| 2026-05-08 18:52 | 53.66409 | 9.62968 | 10746 ft | 347 kts | 239° |
| 2026-05-08 18:52 | 53.64979 | 9.59581 | 10865 ft | 363 kts | 229° |
| 2026-05-08 18:52 | 53.63146 | 9.56545 | 10990 ft | 378 kts | 217° |
| 2026-05-08 18:52 | 53.60838 | 9.54314 | 11217 ft | 388 kts | 204° |
| 2026-05-08 18:53 | 53.58362 | 9.52447 | 11657 ft | 392 kts | 204° |
| 2026-05-08 18:53 | 53.55865 | 9.50573 | 12146 ft | 395 kts | 204° |
| 2026-05-08 18:53 | 53.53345 | 9.48692 | 12628 ft | 397 kts | 204° |
| 2026-05-08 18:53 | 53.50805 | 9.46804 | 13101 ft | 400 kts | 204° |
| 2026-05-08 18:54 | 53.48253 | 9.44912 | 13569 ft | 403 kts | 204° |
| 2026-05-08 18:54 | 53.45677 | 9.43012 | 14019 ft | 405 kts | 204° |
| 2026-05-08 18:54 | 53.43087 | 9.41105 | 14431 ft | 408 kts | 205° |
| 2026-05-08 18:54 | 53.40480 | 9.39189 | 14833 ft | 410 kts | 205° |
| 2026-05-08 18:55 | 53.35225 | 9.35331 | 15669 ft | 414 kts | 205° |
| 2026-05-08 18:55 | 53.32582 | 9.33395 | 16079 ft | 416 kts | 205° |
| 2026-05-08 18:55 | 53.29884 | 9.31420 | 16482 ft | 419 kts | 205° |
| 2026-05-08 18:56 | 53.27208 | 9.29463 | 16891 ft | 421 kts | 205° |
| 2026-05-08 18:56 | 53.24563 | 9.27532 | 17283 ft | 423 kts | 205° |
| 2026-05-08 18:56 | 53.22121 | 9.25751 | 17652 ft | 425 kts | 205° |
| 2026-05-08 18:56 | 53.19442 | 9.23795 | 18042 ft | 427 kts | 205° |
| 2026-05-08 18:57 | 53.16683 | 9.21782 | 18436 ft | 429 kts | 205° |
| 2026-05-08 18:57 | 53.14864 | 9.20458 | 18680 ft | 430 kts | 205° |
| 2026-05-08 18:57 | 53.11182 | 9.17786 | 19138 ft | 433 kts | 205° |
| 2026-05-08 18:57 | 53.08407 | 9.15782 | 19478 ft | 435 kts | 205° |
| 2026-05-08 18:58 | 53.05627 | 9.13778 | 19807 ft | 437 kts | 205° |
| 2026-05-08 18:58 | 53.02826 | 9.11760 | 20129 ft | 439 kts | 205° |
| 2026-05-08 18:58 | 53.00016 | 9.09737 | 20468 ft | 441 kts | 205° |
| 2026-05-08 18:58 | 52.97202 | 9.07710 | 20791 ft | 443 kts | 205° |
| 2026-05-08 18:59 | 52.94368 | 9.05665 | 21115 ft | 445 kts | 205° |
| 2026-05-08 18:59 | 52.91524 | 9.03616 | 21434 ft | 447 kts | 205° |
| 2026-05-08 18:59 | 52.88668 | 9.01563 | 21741 ft | 449 kts | 205° |
| 2026-05-08 18:59 | 52.85795 | 8.99503 | 22057 ft | 451 kts | 205° |
| 2026-05-08 19:00 | 52.83887 | 8.98140 | 22264 ft | 452 kts | 205° |
| 2026-05-08 19:00 | 52.80018 | 8.95380 | 22670 ft | 454 kts | 205° |
| 2026-05-08 19:00 | 52.77105 | 8.93305 | 22977 ft | 456 kts | 205° |
| 2026-05-08 19:00 | 52.74186 | 8.91226 | 23265 ft | 458 kts | 205° |
| 2026-05-08 19:01 | 52.71250 | 8.89142 | 23573 ft | 460 kts | 205° |
| 2026-05-08 19:01 | 52.68303 | 8.87056 | 23849 ft | 462 kts | 205° |
| 2026-05-08 19:01 | 52.65349 | 8.84961 | 24106 ft | 463 kts | 205° |
| 2026-05-08 19:01 | 52.62391 | 8.82863 | 24480 ft | 462 kts | 205° |
| 2026-05-08 19:02 | 52.59447 | 8.80781 | 24849 ft | 460 kts | 205° |
| 2026-05-08 19:02 | 52.56506 | 8.78709 | 25210 ft | 459 kts | 205° |
| 2026-05-08 19:02 | 52.53593 | 8.76658 | 25563 ft | 458 kts | 205° |
| 2026-05-08 19:02 | 52.50647 | 8.74560 | 25920 ft | 457 kts | 207° |
| 2026-05-08 19:03 | 52.47980 | 8.71803 | 26235 ft | 453 kts | 222° |
| 2026-05-08 19:03 | 52.45759 | 8.68173 | 26553 ft | 451 kts | 228° |
| 2026-05-08 19:03 | 52.43622 | 8.64411 | 26885 ft | 450 kts | 229° |
| 2026-05-08 19:03 | 52.41499 | 8.60644 | 27230 ft | 449 kts | 229° |
| 2026-05-08 19:04 | 52.39354 | 8.56830 | 27577 ft | 449 kts | 229° |
| 2026-05-08 19:04 | 52.37245 | 8.53087 | 27915 ft | 448 kts | 229° |
| 2026-05-08 19:04 | 52.35129 | 8.49339 | 28257 ft | 447 kts | 229° |
| 2026-05-08 19:04 | 52.33020 | 8.45610 | 28577 ft | 447 kts | 229° |
| 2026-05-08 19:05 | 52.30912 | 8.41890 | 28909 ft | 446 kts | 229° |
| 2026-05-08 19:05 | 52.28798 | 8.38173 | 29212 ft | 446 kts | 229° |
| 2026-05-08 19:05 | 52.27282 | 8.35510 | 29430 ft | 445 kts | 229° |
| 2026-05-08 19:05 | 52.25170 | 8.31801 | 29734 ft | 445 kts | 229° |
| 2026-05-08 19:06 | 52.23062 | 8.28114 | 30043 ft | 445 kts | 229° |
| 2026-05-08 19:06 | 52.20947 | 8.24430 | 30315 ft | 444 kts | 229° |
| 2026-05-08 19:06 | 52.18835 | 8.20760 | 30568 ft | 444 kts | 229° |
| 2026-05-08 19:06 | 52.16723 | 8.17091 | 30824 ft | 444 kts | 228° |
| 2026-05-08 19:07 | 52.14615 | 8.13428 | 31077 ft | 443 kts | 228° |
| 2026-05-08 19:07 | 52.12509 | 8.09765 | 31331 ft | 443 kts | 228° |
| 2026-05-08 19:07 | 52.10408 | 8.06116 | 31590 ft | 442 kts | 228° |
| 2026-05-08 19:07 | 52.08299 | 8.02463 | 31835 ft | 442 kts | 228° |
| 2026-05-08 19:08 | 52.06194 | 7.98824 | 32074 ft | 442 kts | 228° |
| 2026-05-08 19:08 | 52.01970 | 7.91529 | 32159 ft | 446 kts | 228° |
| 2026-05-08 19:09 | 51.97712 | 7.84190 | 32157 ft | 447 kts | 228° |
| 2026-05-08 19:09 | 51.93439 | 7.76862 | 32154 ft | 447 kts | 228° |
| 2026-05-08 19:10 | 51.89527 | 7.70192 | 32151 ft | 448 kts | 227° |
| 2026-05-08 19:10 | 51.85231 | 7.62871 | 32145 ft | 448 kts | 228° |
| 2026-05-08 19:11 | 51.80935 | 7.55559 | 32132 ft | 449 kts | 227° |
| 2026-05-08 19:11 | 51.77328 | 7.49439 | 32130 ft | 449 kts | 227° |
| 2026-05-08 19:12 | 51.73013 | 7.42146 | 32130 ft | 449 kts | 227° |
| 2026-05-08 19:12 | 51.68696 | 7.34867 | 32127 ft | 449 kts | 227° |
| 2026-05-08 19:13 | 51.64377 | 7.27594 | 32123 ft | 450 kts | 227° |
| 2026-05-08 19:13 | 51.60048 | 7.20323 | 32122 ft | 450 kts | 227° |
| 2026-05-08 19:14 | 51.55701 | 7.13072 | 32120 ft | 450 kts | 227° |
| 2026-05-08 19:14 | 51.51872 | 7.06709 | 32114 ft | 451 kts | 227° |
| 2026-05-08 19:15 | 51.47520 | 6.99469 | 32108 ft | 451 kts | 227° |
| 2026-05-08 19:15 | 51.43160 | 6.92235 | 32107 ft | 452 kts | 227° |
| 2026-05-08 19:16 | 51.38780 | 6.84997 | 32103 ft | 452 kts | 227° |
| 2026-05-08 19:16 | 51.34371 | 6.77732 | 32102 ft | 452 kts | 227° |
| 2026-05-08 19:17 | 51.29948 | 6.70581 | 32100 ft | 453 kts | 226° |
| 2026-05-08 19:17 | 51.27712 | 6.67035 | 32295 ft | 452 kts | 226° |
| 2026-05-08 19:17 | 51.25479 | 6.63512 | 32556 ft | 451 kts | 226° |
| 2026-05-08 19:17 | 51.23245 | 6.59993 | 32820 ft | 450 kts | 226° |
| 2026-05-08 19:18 | 51.21019 | 6.56490 | 33041 ft | 451 kts | 226° |
| 2026-05-08 19:18 | 51.16553 | 6.49448 | 33112 ft | 452 kts | 226° |
| 2026-05-08 19:19 | 51.12074 | 6.42397 | 33111 ft | 453 kts | 226° |
| 2026-05-08 19:19 | 51.07588 | 6.35368 | 33108 ft | 453 kts | 226° |
| 2026-05-08 19:20 | 51.03095 | 6.28347 | 33110 ft | 453 kts | 226° |
| 2026-05-08 19:20 | 50.98599 | 6.21337 | 33108 ft | 453 kts | 226° |
| 2026-05-08 19:21 | 50.94097 | 6.14329 | 33106 ft | 454 kts | 226° |
| 2026-05-08 19:21 | 50.89587 | 6.07334 | 33103 ft | 454 kts | 226° |
| 2026-05-08 19:22 | 50.84877 | 6.00667 | 33099 ft | 455 kts | 221° |
| 2026-05-08 19:22 | 50.79943 | 5.94356 | 33096 ft | 456 kts | 220° |
| 2026-05-08 19:23 | 50.74970 | 5.88131 | 33093 ft | 456 kts | 220° |
| 2026-05-08 19:23 | 50.70002 | 5.81899 | 33091 ft | 457 kts | 220° |
| 2026-05-08 19:24 | 50.65010 | 5.75600 | 33091 ft | 457 kts | 221° |
| 2026-05-08 19:24 | 50.60046 | 5.69334 | 33089 ft | 458 kts | 221° |
| 2026-05-08 19:25 | 50.55060 | 5.63079 | 33092 ft | 458 kts | 221° |
| 2026-05-08 19:25 | 50.50070 | 5.56839 | 33092 ft | 459 kts | 221° |
| 2026-05-08 19:26 | 50.45068 | 5.50602 | 33090 ft | 459 kts | 221° |
| 2026-05-08 19:26 | 50.40064 | 5.44376 | 33086 ft | 460 kts | 221° |
| 2026-05-08 19:27 | 50.35049 | 5.38143 | 33077 ft | 460 kts | 221° |
| 2026-05-08 19:27 | 50.30021 | 5.31915 | 33075 ft | 461 kts | 221° |
| 2026-05-08 19:28 | 50.24985 | 5.25691 | 33077 ft | 462 kts | 221° |
| 2026-05-08 19:28 | 50.19941 | 5.19483 | 33078 ft | 462 kts | 221° |
| 2026-05-08 19:29 | 50.14881 | 5.13281 | 33075 ft | 463 kts | 221° |
| 2026-05-08 19:29 | 50.09808 | 5.07084 | 33074 ft | 464 kts | 221° |
| 2026-05-08 19:30 | 50.04733 | 5.00896 | 33068 ft | 464 kts | 221° |
| 2026-05-08 19:30 | 49.99639 | 4.94691 | 33078 ft | 465 kts | 221° |
| 2026-05-08 19:31 | 49.94502 | 4.88451 | 33086 ft | 466 kts | 222° |
| 2026-05-08 19:31 | 49.89393 | 4.82267 | 33077 ft | 466 kts | 222° |
| 2026-05-08 19:32 | 49.84264 | 4.76079 | 33080 ft | 467 kts | 222° |
| 2026-05-08 19:32 | 49.79132 | 4.69898 | 33075 ft | 467 kts | 222° |
| 2026-05-08 19:33 | 49.74002 | 4.63735 | 33073 ft | 467 kts | 222° |
| 2026-05-08 19:33 | 49.68861 | 4.57580 | 33074 ft | 468 kts | 223° |
| 2026-05-08 19:34 | 49.63704 | 4.51433 | 33075 ft | 468 kts | 223° |
| 2026-05-08 19:34 | 49.58552 | 4.45299 | 33074 ft | 468 kts | 223° |
| 2026-05-08 19:35 | 49.53399 | 4.39177 | 33078 ft | 468 kts | 223° |
| 2026-05-08 19:35 | 49.48250 | 4.33072 | 33073 ft | 467 kts | 223° |
| 2026-05-08 19:36 | 49.43101 | 4.26999 | 33067 ft | 466 kts | 223° |
| 2026-05-08 19:36 | 49.37959 | 4.20947 | 33065 ft | 466 kts | 223° |
| 2026-05-08 19:37 | 49.32812 | 4.14899 | 33066 ft | 465 kts | 223° |
| 2026-05-08 19:37 | 49.27649 | 4.08850 | 33067 ft | 464 kts | 223° |
| 2026-05-08 19:38 | 49.22515 | 4.02866 | 33069 ft | 463 kts | 223° |
| 2026-05-08 19:38 | 49.17396 | 3.96908 | 33062 ft | 462 kts | 223° |
| 2026-05-08 19:39 | 49.12288 | 3.90965 | 33070 ft | 461 kts | 223° |
| 2026-05-08 19:39 | 49.07183 | 3.85045 | 33069 ft | 461 kts | 222° |
| 2026-05-08 19:40 | 49.02081 | 3.79149 | 33083 ft | 460 kts | 222° |
| 2026-05-08 19:40 | 48.96988 | 3.73275 | 33086 ft | 459 kts | 222° |
| 2026-05-08 19:41 | 48.91897 | 3.67424 | 33081 ft | 458 kts | 222° |
| 2026-05-08 19:41 | 48.86815 | 3.61598 | 33082 ft | 457 kts | 222° |
| 2026-05-08 19:42 | 48.81740 | 3.55797 | 33080 ft | 457 kts | 221° |
| 2026-05-08 19:42 | 48.76667 | 3.50011 | 33074 ft | 456 kts | 221° |
| 2026-05-08 19:43 | 48.72427 | 3.45185 | 33078 ft | 455 kts | 221° |
| 2026-05-08 19:43 | 48.67782 | 3.39924 | 33074 ft | 455 kts | 221° |
| 2026-05-08 19:44 | 48.62720 | 3.34191 | 33076 ft | 454 kts | 221° |
| 2026-05-08 19:44 | 48.57667 | 3.28480 | 33088 ft | 453 kts | 221° |
| 2026-05-08 19:45 | 48.52622 | 3.22802 | 33073 ft | 452 kts | 221° |
| 2026-05-08 19:45 | 48.47713 | 3.17283 | 33068 ft | 451 kts | 220° |
| 2026-05-08 19:46 | 48.42686 | 3.11649 | 33064 ft | 450 kts | 220° |
| 2026-05-08 19:46 | 48.35122 | 3.03194 | 33058 ft | 449 kts | 220° |
| 2026-05-08 19:47 | 48.30111 | 2.97592 | 33055 ft | 449 kts | 220° |
| 2026-05-08 19:47 | 48.25068 | 2.92054 | 33049 ft | 449 kts | 219° |
| 2026-05-08 19:48 | 48.19962 | 2.86664 | 33046 ft | 449 kts | 218° |
| 2026-05-08 19:48 | 48.14847 | 2.81307 | 33040 ft | 449 kts | 218° |
| 2026-05-08 19:49 | 48.09745 | 2.75937 | 33042 ft | 448 kts | 218° |
| 2026-05-08 19:49 | 48.04657 | 2.70563 | 33043 ft | 448 kts | 218° |
| 2026-05-08 19:50 | 47.99565 | 2.65208 | 33049 ft | 447 kts | 218° |
| 2026-05-08 19:50 | 47.94469 | 2.59864 | 33051 ft | 447 kts | 218° |
| 2026-05-08 19:51 | 47.89380 | 2.54546 | 33053 ft | 446 kts | 217° |
| 2026-05-08 19:51 | 47.84295 | 2.49235 | 33052 ft | 446 kts | 217° |
| 2026-05-08 19:52 | 47.79176 | 2.43912 | 33061 ft | 446 kts | 217° |
| 2026-05-08 19:52 | 47.74092 | 2.38647 | 33042 ft | 445 kts | 217° |
| 2026-05-08 19:53 | 47.69013 | 2.33387 | 33049 ft | 445 kts | 217° |
| 2026-05-08 19:53 | 47.63936 | 2.28141 | 33047 ft | 444 kts | 217° |
| 2026-05-08 19:54 | 47.58864 | 2.22908 | 33042 ft | 444 kts | 216° |
| 2026-05-08 19:54 | 47.53785 | 2.17702 | 33031 ft | 444 kts | 216° |
| 2026-05-08 19:55 | 47.48711 | 2.12501 | 33028 ft | 444 kts | 216° |
| 2026-05-08 19:55 | 47.43633 | 2.07307 | 33018 ft | 443 kts | 216° |
| 2026-05-08 19:56 | 47.38561 | 2.02135 | 33020 ft | 443 kts | 216° |
| 2026-05-08 19:56 | 47.33490 | 1.96972 | 33016 ft | 443 kts | 216° |
| 2026-05-08 19:57 | 47.28411 | 1.91809 | 33013 ft | 443 kts | 215° |
| 2026-05-08 19:57 | 47.23335 | 1.86673 | 33010 ft | 443 kts | 215° |
| 2026-05-08 19:58 | 47.18257 | 1.81544 | 33011 ft | 443 kts | 215° |
| 2026-05-08 19:58 | 47.13148 | 1.76396 | 33007 ft | 442 kts | 214° |
| 2026-05-08 19:59 | 47.08071 | 1.71290 | 33009 ft | 442 kts | 214° |
| 2026-05-08 19:59 | 47.02993 | 1.66196 | 33011 ft | 442 kts | 214° |
| 2026-05-08 20:00 | 46.97972 | 1.61012 | 33007 ft | 442 kts | 220° |
| 2026-05-08 20:00 | 46.93347 | 1.55086 | 32999 ft | 442 kts | 220° |
| 2026-05-08 20:01 | 46.88754 | 1.49109 | 33000 ft | 442 kts | 220° |
| 2026-05-08 20:01 | 46.84168 | 1.43145 | 33004 ft | 442 kts | 220° |
| 2026-05-08 20:02 | 46.79560 | 1.37214 | 33001 ft | 441 kts | 220° |
| 2026-05-08 20:02 | 46.74947 | 1.31307 | 32984 ft | 441 kts | 220° |
| 2026-05-08 20:03 | 46.70329 | 1.25398 | 32974 ft | 442 kts | 220° |
| 2026-05-08 20:03 | 46.65712 | 1.19498 | 32976 ft | 442 kts | 220° |
| 2026-05-08 20:04 | 46.61091 | 1.13597 | 32970 ft | 442 kts | 219° |
| 2026-05-08 20:04 | 46.56460 | 1.07709 | 32969 ft | 443 kts | 219° |
| 2026-05-08 20:05 | 46.51812 | 1.01826 | 32964 ft | 443 kts | 219° |
| 2026-05-08 20:05 | 46.47134 | 0.95905 | 32964 ft | 443 kts | 219° |
| 2026-05-08 20:06 | 46.42483 | 0.90025 | 32968 ft | 444 kts | 219° |
| 2026-05-08 20:06 | 46.37822 | 0.84155 | 32963 ft | 444 kts | 218° |
| 2026-05-08 20:07 | 46.33146 | 0.78289 | 32965 ft | 445 kts | 218° |
| 2026-05-08 20:07 | 46.28468 | 0.72426 | 32964 ft | 445 kts | 218° |
| 2026-05-08 20:08 | 46.23786 | 0.66569 | 32964 ft | 446 kts | 218° |
| 2026-05-08 20:08 | 46.19092 | 0.60707 | 32969 ft | 446 kts | 218° |
| 2026-05-08 20:09 | 46.14391 | 0.54852 | 32963 ft | 447 kts | 218° |
| 2026-05-08 20:09 | 46.09682 | 0.49001 | 32966 ft | 447 kts | 218° |
| 2026-05-08 20:10 | 46.04997 | 0.43187 | 32966 ft | 447 kts | 217° |
| 2026-05-08 20:10 | 46.00280 | 0.37357 | 32969 ft | 447 kts | 217° |
| 2026-05-08 20:11 | 45.95561 | 0.31540 | 32967 ft | 447 kts | 217° |
| 2026-05-08 20:11 | 45.90839 | 0.25729 | 32971 ft | 447 kts | 217° |
| 2026-05-08 20:12 | 45.86103 | 0.19923 | 32979 ft | 447 kts | 217° |
| 2026-05-08 20:12 | 45.81337 | 0.14088 | 32980 ft | 447 kts | 217° |
| 2026-05-08 20:13 | 45.80575 | 0.13155 | 32982 ft | 447 kts | 217° |
| 2026-05-08 20:13 | 45.79516 | 0.11882 | 33000 ft | 445 kts | 216° |
| 2026-05-08 20:14 | 45.74751 | 0.06181 | 32994 ft | 447 kts | 217° |
| 2026-05-08 20:14 | 45.70039 | 0.00354 | 32985 ft | 447 kts | 217° |
| 2026-05-08 20:15 | 45.65330 | -0.05447 | 32963 ft | 447 kts | 216° |
| 2026-05-08 20:15 | 45.60591 | -0.11189 | 32966 ft | 446 kts | 216° |
| 2026-05-08 20:16 | 45.56652 | -0.15930 | 32967 ft | 446 kts | 216° |
| 2026-05-08 20:16 | 45.51915 | -0.21643 | 32969 ft | 445 kts | 216° |
| 2026-05-08 20:17 | 45.47155 | -0.27375 | 32974 ft | 445 kts | 216° |
| 2026-05-08 20:17 | 45.42430 | -0.33045 | 32972 ft | 444 kts | 216° |
| 2026-05-08 20:18 | 45.37719 | -0.38705 | 32967 ft | 443 kts | 216° |
| 2026-05-08 20:18 | 45.33007 | -0.44359 | 32967 ft | 443 kts | 216° |
| 2026-05-08 20:19 | 45.28303 | -0.49982 | 32969 ft | 442 kts | 216° |
| 2026-05-08 20:19 | 45.23592 | -0.55587 | 32971 ft | 442 kts | 216° |
| 2026-05-08 20:20 | 45.18883 | -0.61178 | 32970 ft | 441 kts | 216° |
| 2026-05-08 20:20 | 45.14179 | -0.66759 | 32965 ft | 441 kts | 217° |
| 2026-05-08 20:21 | 45.09470 | -0.72330 | 32970 ft | 440 kts | 217° |
| 2026-05-08 20:21 | 45.04769 | -0.77878 | 32967 ft | 440 kts | 217° |
| 2026-05-08 20:22 | 45.00074 | -0.83415 | 32967 ft | 439 kts | 217° |
| 2026-05-08 20:22 | 44.95381 | -0.88935 | 32964 ft | 439 kts | 217° |
| 2026-05-08 20:23 | 44.90688 | -0.94427 | 32964 ft | 438 kts | 217° |
| 2026-05-08 20:23 | 44.86082 | -0.99809 | 32960 ft | 437 kts | 218° |
| 2026-05-08 20:24 | 44.81370 | -1.05308 | 32966 ft | 437 kts | 218° |
| 2026-05-08 20:24 | 44.76700 | -1.10755 | 32964 ft | 436 kts | 218° |
| 2026-05-08 20:25 | 44.72219 | -1.15964 | 32963 ft | 436 kts | 218° |
| 2026-05-08 20:25 | 44.67547 | -1.21394 | 32960 ft | 435 kts | 218° |
| 2026-05-08 20:26 | 44.62886 | -1.26798 | 32970 ft | 434 kts | 218° |
| 2026-05-08 20:26 | 44.58218 | -1.32169 | 32964 ft | 434 kts | 218° |
| 2026-05-08 20:27 | 44.53557 | -1.37528 | 32966 ft | 433 kts | 218° |
| 2026-05-08 20:27 | 44.48912 | -1.42882 | 32953 ft | 432 kts | 219° |
| 2026-05-08 20:28 | 44.44277 | -1.48220 | 32960 ft | 431 kts | 219° |
| 2026-05-08 20:28 | 44.39645 | -1.53517 | 32953 ft | 430 kts | 219° |
| 2026-05-08 20:29 | 44.35015 | -1.58803 | 32953 ft | 429 kts | 219° |
| 2026-05-08 20:29 | 44.30396 | -1.64070 | 32962 ft | 428 kts | 219° |
| 2026-05-08 20:30 | 44.25784 | -1.69322 | 32957 ft | 427 kts | 219° |
| 2026-05-08 20:30 | 44.21147 | -1.74590 | 32955 ft | 427 kts | 219° |
| 2026-05-08 20:31 | 44.16544 | -1.79814 | 32955 ft | 426 kts | 219° |
| 2026-05-08 20:31 | 44.11948 | -1.85012 | 32959 ft | 425 kts | 219° |
| 2026-05-08 20:32 | 44.07355 | -1.90194 | 32949 ft | 425 kts | 219° |
| 2026-05-08 20:32 | 44.02769 | -1.95354 | 32956 ft | 424 kts | 219° |
| 2026-05-08 20:33 | 43.98187 | -2.00509 | 32946 ft | 424 kts | 219° |
| 2026-05-08 20:33 | 43.93608 | -2.05649 | 32952 ft | 423 kts | 219° |
| 2026-05-08 20:34 | 43.89023 | -2.10776 | 32934 ft | 423 kts | 219° |
| 2026-05-08 20:35 | 43.82155 | -2.18440 | 32938 ft | 423 kts | 219° |
| 2026-05-08 20:35 | 43.77570 | -2.23545 | 32937 ft | 423 kts | 219° |
| 2026-05-08 20:36 | 43.72985 | -2.28637 | 32951 ft | 423 kts | 219° |
| 2026-05-08 20:36 | 43.68398 | -2.33722 | 32958 ft | 422 kts | 219° |
| 2026-05-08 20:37 | 43.63829 | -2.38897 | 32955 ft | 422 kts | 220° |
| 2026-05-08 20:37 | 43.59388 | -2.44195 | 32948 ft | 422 kts | 221° |
| 2026-05-08 20:38 | 43.54970 | -2.49498 | 32958 ft | 421 kts | 221° |
| 2026-05-08 20:38 | 43.50532 | -2.54763 | 32952 ft | 421 kts | 220° |
| 2026-05-08 20:39 | 43.46089 | -2.60007 | 32960 ft | 420 kts | 220° |
| 2026-05-08 20:39 | 43.41655 | -2.65226 | 32964 ft | 419 kts | 220° |
| 2026-05-08 20:40 | 43.37220 | -2.70431 | 32967 ft | 418 kts | 220° |
| 2026-05-08 20:40 | 43.32798 | -2.75614 | 32969 ft | 417 kts | 220° |
| 2026-05-08 20:41 | 43.28391 | -2.80784 | 32967 ft | 416 kts | 220° |
| 2026-05-08 20:41 | 43.23994 | -2.85917 | 32972 ft | 415 kts | 220° |
| 2026-05-08 20:42 | 43.19608 | -2.91028 | 32971 ft | 413 kts | 220° |
| 2026-05-08 20:42 | 43.15238 | -2.96115 | 32976 ft | 412 kts | 220° |
| 2026-05-08 20:43 | 43.10878 | -3.01178 | 32979 ft | 410 kts | 220° |
| 2026-05-08 20:43 | 43.07172 | -3.05490 | 32978 ft | 409 kts | 220° |
| 2026-05-08 20:44 | 43.02809 | -3.10527 | 32984 ft | 407 kts | 220° |
| 2026-05-08 20:44 | 42.98483 | -3.15507 | 32987 ft | 406 kts | 220° |
| 2026-05-08 20:45 | 42.94173 | -3.20479 | 32988 ft | 405 kts | 220° |
| 2026-05-08 20:45 | 42.89878 | -3.25422 | 32991 ft | 404 kts | 220° |
| 2026-05-08 20:46 | 42.85588 | -3.30353 | 32994 ft | 403 kts | 220° |
| 2026-05-08 20:46 | 42.81303 | -3.35266 | 32990 ft | 402 kts | 220° |
| 2026-05-08 20:47 | 42.77024 | -3.40158 | 32991 ft | 401 kts | 220° |
| 2026-05-08 20:47 | 42.72752 | -3.45026 | 32993 ft | 400 kts | 220° |
| 2026-05-08 20:48 | 42.68485 | -3.49885 | 32991 ft | 400 kts | 220° |
| 2026-05-08 20:48 | 42.64921 | -3.53954 | 32989 ft | 399 kts | 220° |
| 2026-05-08 20:49 | 42.60664 | -3.58800 | 32989 ft | 399 kts | 220° |
| 2026-05-08 20:49 | 42.56406 | -3.63623 | 32983 ft | 398 kts | 220° |
| 2026-05-08 20:50 | 42.52150 | -3.68440 | 32981 ft | 398 kts | 220° |
| 2026-05-08 20:50 | 42.47902 | -3.73236 | 32981 ft | 398 kts | 220° |
| 2026-05-08 20:51 | 42.43655 | -3.78028 | 32984 ft | 397 kts | 220° |
| 2026-05-08 20:51 | 42.39407 | -3.82811 | 32990 ft | 397 kts | 220° |
| 2026-05-08 20:52 | 42.35167 | -3.87568 | 32990 ft | 396 kts | 220° |
| 2026-05-08 20:52 | 42.30932 | -3.92318 | 32989 ft | 395 kts | 220° |
| 2026-05-08 20:53 | 42.26702 | -3.97051 | 32990 ft | 395 kts | 220° |
| 2026-05-08 20:53 | 42.22472 | -4.01775 | 32984 ft | 394 kts | 220° |
| 2026-05-08 20:54 | 42.18254 | -4.06496 | 32982 ft | 394 kts | 220° |
| 2026-05-08 20:54 | 42.14034 | -4.11197 | 32983 ft | 394 kts | 220° |
| 2026-05-08 20:55 | 42.09723 | -4.15991 | 32982 ft | 404 kts | 220° |
| 2026-05-08 20:55 | 42.05341 | -4.20850 | 32961 ft | 411 kts | 220° |
| 2026-05-08 20:56 | 42.00889 | -4.25781 | 32958 ft | 417 kts | 220° |
| 2026-05-08 20:56 | 41.96394 | -4.30749 | 33140 ft | 417 kts | 220° |
| 2026-05-08 20:56 | 41.94177 | -4.33197 | 33647 ft | 408 kts | 220° |
| 2026-05-08 20:57 | 41.92004 | -4.35594 | 34107 ft | 400 kts | 220° |
| 2026-05-08 20:57 | 41.89867 | -4.37949 | 34506 ft | 394 kts | 220° |
| 2026-05-08 20:57 | 41.87771 | -4.40255 | 34902 ft | 387 kts | 220° |
| 2026-05-08 20:57 | 41.85699 | -4.42534 | 35312 ft | 382 kts | 220° |
| 2026-05-08 20:58 | 41.83666 | -4.44767 | 35725 ft | 375 kts | 220° |
| 2026-05-08 20:58 | 41.81662 | -4.46967 | 36138 ft | 368 kts | 220° |
| 2026-05-08 20:58 | 41.79702 | -4.49116 | 36548 ft | 361 kts | 220° |
| 2026-05-08 20:58 | 41.77779 | -4.51223 | 36839 ft | 357 kts | 220° |
| 2026-05-08 20:59 | 41.75801 | -4.53391 | 36078 ft | 378 kts | 220° |
| 2026-05-08 20:59 | 41.73745 | -4.55648 | 35316 ft | 385 kts | 220° |
| 2026-05-08 20:59 | 41.71670 | -4.57923 | 34666 ft | 385 kts | 220° |
| 2026-05-08 20:59 | 41.69605 | -4.60181 | 34149 ft | 383 kts | 220° |
| 2026-05-08 21:00 | 41.67555 | -4.62414 | 33950 ft | 378 kts | 220° |
| 2026-05-08 21:00 | 41.63468 | -4.66861 | 33937 ft | 379 kts | 220° |
| 2026-05-08 21:01 | 41.59378 | -4.71308 | 33938 ft | 379 kts | 220° |
| 2026-05-08 21:01 | 41.55264 | -4.75780 | 33934 ft | 379 kts | 220° |
| 2026-05-08 21:02 | 41.51177 | -4.80212 | 33929 ft | 379 kts | 220° |
| 2026-05-08 21:02 | 41.47083 | -4.84643 | 33924 ft | 379 kts | 220° |
| 2026-05-08 21:03 | 41.42987 | -4.89069 | 33919 ft | 379 kts | 220° |
| 2026-05-08 21:03 | 41.38887 | -4.93496 | 33914 ft | 379 kts | 220° |
| 2026-05-08 21:04 | 41.34779 | -4.97917 | 33913 ft | 380 kts | 220° |
| 2026-05-08 21:04 | 41.30672 | -5.02329 | 33912 ft | 380 kts | 220° |
| 2026-05-08 21:05 | 41.26562 | -5.06745 | 33915 ft | 380 kts | 220° |
| 2026-05-08 21:05 | 41.22454 | -5.11157 | 33919 ft | 380 kts | 220° |
| 2026-05-08 21:06 | 41.18348 | -5.15564 | 33920 ft | 379 kts | 220° |
| 2026-05-08 21:06 | 41.14243 | -5.19954 | 33921 ft | 379 kts | 220° |
| 2026-05-08 21:07 | 41.10134 | -5.24324 | 33925 ft | 378 kts | 220° |
| 2026-05-08 21:07 | 41.06028 | -5.28688 | 33927 ft | 378 kts | 220° |
| 2026-05-08 21:08 | 41.01932 | -5.33044 | 33927 ft | 377 kts | 219° |
| 2026-05-08 21:08 | 40.97813 | -5.37414 | 33935 ft | 377 kts | 219° |
| 2026-05-08 21:09 | 40.93719 | -5.41755 | 33934 ft | 376 kts | 219° |
| 2026-05-08 21:09 | 40.89637 | -5.46075 | 33935 ft | 376 kts | 219° |
| 2026-05-08 21:10 | 40.85552 | -5.50387 | 33937 ft | 375 kts | 219° |
| 2026-05-08 21:10 | 40.81471 | -5.54689 | 33930 ft | 375 kts | 219° |
| 2026-05-08 21:11 | 40.77392 | -5.58989 | 33930 ft | 375 kts | 219° |
| 2026-05-08 21:11 | 40.73315 | -5.63279 | 33924 ft | 375 kts | 219° |
| 2026-05-08 21:12 | 40.69240 | -5.67553 | 33921 ft | 374 kts | 219° |
| 2026-05-08 21:12 | 40.65166 | -5.71815 | 33913 ft | 374 kts | 219° |
| 2026-05-08 21:13 | 40.61101 | -5.76076 | 33912 ft | 374 kts | 219° |
| 2026-05-08 21:13 | 40.57032 | -5.80331 | 33908 ft | 374 kts | 219° |
| 2026-05-08 21:14 | 40.52958 | -5.84574 | 33905 ft | 373 kts | 218° |
| 2026-05-08 21:14 | 40.48893 | -5.88805 | 33899 ft | 373 kts | 218° |
| 2026-05-08 21:15 | 40.44823 | -5.93038 | 33898 ft | 373 kts | 219° |
| 2026-05-08 21:15 | 40.40749 | -5.97262 | 33894 ft | 373 kts | 218° |
| 2026-05-08 21:16 | 40.36652 | -6.01508 | 33888 ft | 373 kts | 218° |
| 2026-05-08 21:16 | 40.32579 | -6.05722 | 33882 ft | 373 kts | 218° |
| 2026-05-08 21:17 | 40.28506 | -6.09930 | 33890 ft | 373 kts | 218° |
| 2026-05-08 21:17 | 40.26471 | -6.12025 | 34098 ft | 372 kts | 218° |
| 2026-05-08 21:17 | 40.24438 | -6.14116 | 34330 ft | 371 kts | 218° |
| 2026-05-08 21:17 | 40.22414 | -6.16197 | 34559 ft | 370 kts | 218° |
| 2026-05-08 21:18 | 40.20388 | -6.18281 | 34774 ft | 370 kts | 218° |
| 2026-05-08 21:18 | 40.16311 | -6.22475 | 34876 ft | 377 kts | 218° |
| 2026-05-08 21:19 | 40.12172 | -6.26725 | 34867 ft | 379 kts | 218° |
| 2026-05-08 21:19 | 40.08031 | -6.30976 | 34866 ft | 379 kts | 218° |
| 2026-05-08 21:20 | 40.03878 | -6.35224 | 34865 ft | 379 kts | 218° |
| 2026-05-08 21:20 | 40.00411 | -6.38781 | 34866 ft | 379 kts | 218° |
| 2026-05-08 21:21 | 39.96345 | -6.43150 | 34867 ft | 378 kts | 219° |
| 2026-05-08 21:21 | 39.92312 | -6.47558 | 34860 ft | 379 kts | 219° |
| 2026-05-08 21:22 | 39.88258 | -6.51948 | 34862 ft | 379 kts | 219° |
| 2026-05-08 21:22 | 39.84197 | -6.56311 | 34858 ft | 379 kts | 219° |
| 2026-05-08 21:23 | 39.80124 | -6.60673 | 34857 ft | 379 kts | 219° |
| 2026-05-08 21:23 | 39.76047 | -6.65034 | 34860 ft | 380 kts | 219° |
| 2026-05-08 21:24 | 39.71967 | -6.69389 | 34856 ft | 380 kts | 219° |
| 2026-05-08 21:24 | 39.67883 | -6.73753 | 34861 ft | 380 kts | 219° |
| 2026-05-08 21:25 | 39.63805 | -6.78107 | 34856 ft | 380 kts | 219° |
| 2026-05-08 21:25 | 39.59716 | -6.82456 | 34861 ft | 380 kts | 219° |
| 2026-05-08 21:26 | 39.55625 | -6.86796 | 34861 ft | 380 kts | 219° |
| 2026-05-08 21:26 | 39.51544 | -6.91131 | 34860 ft | 379 kts | 219° |
| 2026-05-08 21:27 | 39.47435 | -6.95486 | 34860 ft | 379 kts | 219° |
| 2026-05-08 21:27 | 39.43356 | -6.99807 | 34858 ft | 379 kts | 218° |
| 2026-05-08 21:28 | 39.39271 | -7.04118 | 34862 ft | 379 kts | 218° |
| 2026-05-08 21:28 | 39.35190 | -7.08423 | 34863 ft | 379 kts | 218° |
| 2026-05-08 21:29 | 39.31102 | -7.12732 | 34866 ft | 379 kts | 218° |
| 2026-05-08 21:29 | 39.27017 | -7.17020 | 34862 ft | 379 kts | 218° |
| 2026-05-08 21:30 | 39.22921 | -7.21309 | 34866 ft | 379 kts | 217° |
| 2026-05-08 21:30 | 39.18414 | -7.24787 | 34869 ft | 378 kts | 209° |
| 2026-05-08 21:31 | 39.13772 | -7.27998 | 34870 ft | 379 kts | 209° |
| 2026-05-08 21:31 | 39.09136 | -7.31211 | 34868 ft | 378 kts | 209° |
| 2026-05-08 21:32 | 39.04499 | -7.34426 | 34867 ft | 378 kts | 209° |
| 2026-05-08 21:32 | 38.99865 | -7.37624 | 34862 ft | 378 kts | 209° |
| 2026-05-08 21:33 | 38.95218 | -7.40815 | 34862 ft | 379 kts | 209° |
| 2026-05-08 21:33 | 38.90574 | -7.44010 | 34858 ft | 379 kts | 209° |
| 2026-05-08 21:34 | 38.85899 | -7.47232 | 34858 ft | 379 kts | 209° |
| 2026-05-08 21:34 | 38.81255 | -7.50425 | 34860 ft | 378 kts | 209° |
| 2026-05-08 21:35 | 38.76610 | -7.53602 | 34856 ft | 378 kts | 209° |
| 2026-05-08 21:35 | 38.71969 | -7.56782 | 34857 ft | 378 kts | 209° |
| 2026-05-08 21:36 | 38.67326 | -7.59948 | 34858 ft | 378 kts | 209° |
| 2026-05-08 21:36 | 38.62686 | -7.63116 | 34862 ft | 378 kts | 209° |
| 2026-05-08 21:37 | 38.58047 | -7.66272 | 34864 ft | 378 kts | 209° |
| 2026-05-08 21:37 | 38.53405 | -7.69433 | 34861 ft | 378 kts | 209° |
| 2026-05-08 21:38 | 38.48758 | -7.72592 | 34863 ft | 378 kts | 209° |
| 2026-05-08 21:38 | 38.44080 | -7.75767 | 34862 ft | 379 kts | 209° |
| 2026-05-08 21:39 | 38.39423 | -7.78915 | 34869 ft | 379 kts | 208° |
| 2026-05-08 21:39 | 38.34761 | -7.82064 | 34875 ft | 379 kts | 208° |
| 2026-05-08 21:40 | 38.30099 | -7.85210 | 34884 ft | 379 kts | 209° |
| 2026-05-08 21:40 | 38.25437 | -7.88352 | 34888 ft | 379 kts | 208° |
| 2026-05-08 21:41 | 38.18454 | -7.93048 | 34896 ft | 379 kts | 208° |
| 2026-05-08 21:41 | 38.13792 | -7.96179 | 34899 ft | 379 kts | 209° |
| 2026-05-08 21:42 | 38.09139 | -7.99304 | 34904 ft | 379 kts | 208° |
| 2026-05-08 21:42 | 38.04478 | -8.02430 | 34900 ft | 379 kts | 208° |
| 2026-05-08 21:43 | 37.99820 | -8.05548 | 34898 ft | 378 kts | 208° |
| 2026-05-08 21:43 | 37.95128 | -8.08667 | 34889 ft | 378 kts | 208° |
| 2026-05-08 21:44 | 37.90469 | -8.11771 | 34882 ft | 378 kts | 208° |
| 2026-05-08 21:44 | 37.85812 | -8.14871 | 34873 ft | 378 kts | 208° |
| 2026-05-08 21:45 | 37.81154 | -8.17967 | 34864 ft | 378 kts | 208° |
| 2026-05-08 21:45 | 37.76498 | -8.21064 | 34860 ft | 378 kts | 209° |
| 2026-05-08 21:46 | 37.71840 | -8.24154 | 34863 ft | 378 kts | 208° |
| 2026-05-08 21:46 | 37.67178 | -8.27243 | 34863 ft | 378 kts | 209° |
| 2026-05-08 21:47 | 37.62520 | -8.30324 | 34868 ft | 378 kts | 209° |
| 2026-05-08 21:47 | 37.57853 | -8.33398 | 34866 ft | 378 kts | 209° |
| 2026-05-08 21:48 | 37.53195 | -8.36477 | 34863 ft | 378 kts | 209° |
| 2026-05-08 21:48 | 37.48528 | -8.39544 | 34861 ft | 378 kts | 209° |
| 2026-05-08 21:49 | 37.43861 | -8.42606 | 34856 ft | 378 kts | 209° |
| 2026-05-08 21:49 | 37.39168 | -8.45686 | 34865 ft | 378 kts | 209° |
| 2026-05-08 21:50 | 37.34511 | -8.48748 | 34863 ft | 378 kts | 209° |
| 2026-05-08 21:50 | 37.29854 | -8.51796 | 34870 ft | 378 kts | 209° |
| 2026-05-08 21:51 | 37.25189 | -8.54842 | 34868 ft | 377 kts | 209° |
| 2026-05-08 21:51 | 37.20532 | -8.57877 | 34866 ft | 377 kts | 209° |
| 2026-05-08 21:52 | 37.16658 | -8.60394 | 34865 ft | 377 kts | 209° |
| 2026-05-08 21:52 | 37.11998 | -8.63424 | 34861 ft | 377 kts | 209° |
| 2026-05-08 21:53 | 37.07343 | -8.66453 | 34850 ft | 377 kts | 209° |
| 2026-05-08 21:53 | 37.02678 | -8.69491 | 34850 ft | 377 kts | 209° |
| 2026-05-08 21:54 | 36.98020 | -8.72512 | 34850 ft | 377 kts | 209° |
| 2026-05-08 21:54 | 36.93365 | -8.75530 | 34856 ft | 377 kts | 209° |
| 2026-05-08 21:55 | 36.88705 | -8.78548 | 34860 ft | 377 kts | 209° |
| 2026-05-08 21:56 | 36.81708 | -8.83054 | 34852 ft | 377 kts | 209° |
| 2026-05-08 21:56 | 36.77047 | -8.86061 | 34853 ft | 377 kts | 209° |
| 2026-05-08 21:57 | 36.72386 | -8.89057 | 34852 ft | 377 kts | 209° |
| 2026-05-08 21:57 | 36.67722 | -8.92050 | 34847 ft | 377 kts | 209° |
| 2026-05-08 21:58 | 36.63060 | -8.95043 | 34854 ft | 377 kts | 209° |
| 2026-05-08 21:58 | 36.58396 | -8.98039 | 34847 ft | 377 kts | 209° |
| 2026-05-08 21:59 | 36.53697 | -9.01042 | 34842 ft | 377 kts | 209° |
| 2026-05-08 21:59 | 36.49031 | -9.04022 | 34847 ft | 377 kts | 209° |
| 2026-05-08 22:00 | 36.44367 | -9.06998 | 34842 ft | 377 kts | 209° |
| 2026-05-08 22:00 | 36.39697 | -9.09979 | 34843 ft | 377 kts | 209° |
| 2026-05-08 22:01 | 36.35027 | -9.12952 | 34845 ft | 378 kts | 209° |
| 2026-05-08 22:01 | 36.30351 | -9.15926 | 34847 ft | 378 kts | 209° |
| 2026-05-08 22:02 | 36.25677 | -9.18894 | 34845 ft | 378 kts | 209° |
| 2026-05-08 22:02 | 36.20990 | -9.21856 | 34838 ft | 378 kts | 209° |
| 2026-05-08 22:03 | 36.16306 | -9.24815 | 34837 ft | 378 kts | 209° |
| 2026-05-08 22:03 | 36.11621 | -9.27779 | 34837 ft | 378 kts | 209° |
| 2026-05-08 22:04 | 36.06933 | -9.30746 | 34836 ft | 378 kts | 209° |
| 2026-05-08 22:04 | 36.02244 | -9.33705 | 34837 ft | 379 kts | 209° |
| 2026-05-08 22:05 | 35.97547 | -9.36658 | 34830 ft | 379 kts | 209° |
| 2026-05-08 22:05 | 35.92775 | -9.39561 | 34832 ft | 380 kts | 208° |
| 2026-05-08 22:06 | 35.87996 | -9.42341 | 34834 ft | 380 kts | 207° |
| 2026-05-08 22:06 | 35.83213 | -9.45127 | 34835 ft | 380 kts | 208° |
| 2026-05-08 22:07 | 35.78438 | -9.47930 | 34835 ft | 380 kts | 208° |
| 2026-05-08 22:07 | 35.73658 | -9.50731 | 34839 ft | 380 kts | 208° |
| 2026-05-08 22:08 | 35.68876 | -9.53524 | 34839 ft | 381 kts | 208° |
| 2026-05-08 22:08 | 35.64097 | -9.56316 | 34841 ft | 381 kts | 208° |
| 2026-05-08 22:09 | 35.59309 | -9.59113 | 34839 ft | 381 kts | 208° |
| 2026-05-08 22:09 | 35.54527 | -9.61909 | 34845 ft | 381 kts | 208° |
| 2026-05-08 22:10 | 35.49741 | -9.64700 | 34843 ft | 381 kts | 208° |
| 2026-05-08 22:10 | 35.44947 | -9.67491 | 34847 ft | 381 kts | 208° |
| 2026-05-08 22:11 | 35.40116 | -9.70292 | 34846 ft | 381 kts | 208° |
| 2026-05-08 22:11 | 35.35317 | -9.73079 | 34848 ft | 382 kts | 208° |
| 2026-05-08 22:12 | 35.30515 | -9.75865 | 34846 ft | 382 kts | 208° |
| 2026-05-08 22:12 | 35.25714 | -9.78644 | 34847 ft | 382 kts | 208° |
| 2026-05-08 22:13 | 35.20905 | -9.81425 | 34847 ft | 382 kts | 208° |
| 2026-05-08 22:13 | 35.16095 | -9.84201 | 34850 ft | 382 kts | 208° |
| 2026-05-08 22:14 | 35.11283 | -9.86969 | 34843 ft | 382 kts | 208° |
| 2026-05-08 22:14 | 35.06479 | -9.89750 | 34847 ft | 382 kts | 208° |
| 2026-05-08 22:15 | 35.01663 | -9.92515 | 34849 ft | 383 kts | 208° |
| 2026-05-08 22:15 | 34.96845 | -9.95284 | 34855 ft | 383 kts | 208° |
| 2026-05-08 22:16 | 34.92029 | -9.98049 | 34851 ft | 383 kts | 208° |
| 2026-05-08 22:16 | 34.87211 | -10.00803 | 34852 ft | 383 kts | 208° |
| 2026-05-08 22:17 | 34.82386 | -10.03562 | 34850 ft | 383 kts | 208° |
| 2026-05-08 22:17 | 34.77563 | -10.06321 | 34858 ft | 383 kts | 208° |
| 2026-05-08 22:18 | 34.72698 | -10.09094 | 34857 ft | 383 kts | 208° |
| 2026-05-08 22:18 | 34.67863 | -10.11848 | 34867 ft | 383 kts | 208° |
| 2026-05-08 22:19 | 34.63034 | -10.14595 | 34866 ft | 383 kts | 208° |
| 2026-05-08 22:19 | 34.58204 | -10.17345 | 34863 ft | 383 kts | 208° |
| 2026-05-08 22:20 | 34.53368 | -10.20091 | 34862 ft | 384 kts | 208° |
| 2026-05-08 22:20 | 34.48532 | -10.22827 | 34861 ft | 384 kts | 208° |
| 2026-05-08 22:21 | 34.43694 | -10.25568 | 34866 ft | 384 kts | 208° |
| 2026-05-08 22:21 | 34.38850 | -10.28306 | 34867 ft | 384 kts | 208° |
| 2026-05-08 22:22 | 34.34007 | -10.31045 | 34864 ft | 384 kts | 208° |
| 2026-05-08 22:22 | 34.29159 | -10.33781 | 34868 ft | 384 kts | 208° |
| 2026-05-08 22:23 | 34.24308 | -10.36506 | 34870 ft | 385 kts | 208° |
| 2026-05-08 22:23 | 34.19448 | -10.39232 | 34872 ft | 385 kts | 208° |
| 2026-05-08 22:24 | 34.15370 | -10.41525 | 34871 ft | 386 kts | 209° |
| 2026-05-08 22:24 | 34.10502 | -10.44256 | 34877 ft | 386 kts | 209° |
| 2026-05-08 22:25 | 34.05625 | -10.46991 | 34878 ft | 387 kts | 209° |
| 2026-05-08 22:25 | 34.00743 | -10.49728 | 34879 ft | 387 kts | 209° |
| 2026-05-08 22:26 | 33.95863 | -10.52455 | 34881 ft | 387 kts | 209° |
| 2026-05-08 22:26 | 33.91004 | -10.55230 | 34884 ft | 386 kts | 210° |
| 2026-05-08 22:27 | 33.86195 | -10.58180 | 34910 ft | 392 kts | 211° |
| 2026-05-08 22:27 | 33.81303 | -10.61233 | 34914 ft | 398 kts | 211° |
| 2026-05-08 22:28 | 33.76363 | -10.64286 | 34901 ft | 400 kts | 211° |
| 2026-05-08 22:28 | 33.71397 | -10.67305 | 34904 ft | 400 kts | 211° |
| 2026-05-08 22:29 | 33.66429 | -10.70315 | 34906 ft | 400 kts | 211° |
| 2026-05-08 22:29 | 33.61461 | -10.73335 | 34903 ft | 400 kts | 211° |
| 2026-05-08 22:30 | 33.56493 | -10.76363 | 34907 ft | 401 kts | 211° |
| 2026-05-08 22:30 | 33.51487 | -10.79405 | 34910 ft | 401 kts | 211° |
| 2026-05-08 22:31 | 33.46509 | -10.82418 | 34906 ft | 401 kts | 211° |
| 2026-05-08 22:31 | 33.41526 | -10.85435 | 34914 ft | 401 kts | 211° |
| 2026-05-08 22:32 | 33.36545 | -10.88449 | 34912 ft | 401 kts | 211° |
| 2026-05-08 22:32 | 33.31559 | -10.91460 | 34922 ft | 401 kts | 212° |
| 2026-05-08 22:33 | 33.26576 | -10.94471 | 34925 ft | 401 kts | 212° |
| 2026-05-08 22:33 | 33.21587 | -10.97472 | 34929 ft | 402 kts | 211° |
| 2026-05-08 22:34 | 33.16507 | -11.00380 | 34926 ft | 408 kts | 210° |
| 2026-05-08 22:34 | 33.11319 | -11.03184 | 34907 ft | 410 kts | 210° |
| 2026-05-08 22:35 | 33.06095 | -11.05984 | 34905 ft | 412 kts | 210° |
| 2026-05-08 22:35 | 33.00868 | -11.08812 | 34906 ft | 413 kts | 211° |
| 2026-05-08 22:36 | 32.95635 | -11.11662 | 34921 ft | 414 kts | 211° |
| 2026-05-08 22:36 | 32.90391 | -11.14517 | 34930 ft | 415 kts | 211° |
| 2026-05-08 22:37 | 32.85137 | -11.17366 | 34926 ft | 415 kts | 211° |
| 2026-05-08 22:37 | 32.79880 | -11.20215 | 34935 ft | 416 kts | 211° |
| 2026-05-08 22:38 | 32.74580 | -11.23083 | 34940 ft | 416 kts | 211° |
| 2026-05-08 22:38 | 32.69317 | -11.25927 | 34943 ft | 416 kts | 211° |
| 2026-05-08 22:39 | 32.64049 | -11.28765 | 34947 ft | 416 kts | 211° |
| 2026-05-08 22:39 | 32.58782 | -11.31606 | 34874 ft | 413 kts | 211° |
| 2026-05-08 22:40 | 32.53606 | -11.34383 | 34952 ft | 406 kts | 211° |
| 2026-05-08 22:40 | 32.48476 | -11.37141 | 34956 ft | 404 kts | 211° |
| 2026-05-08 22:41 | 32.43359 | -11.39899 | 34956 ft | 404 kts | 211° |
| 2026-05-08 22:41 | 32.38236 | -11.42654 | 34957 ft | 404 kts | 211° |
| 2026-05-08 22:42 | 32.33113 | -11.45400 | 34951 ft | 404 kts | 211° |
| 2026-05-08 22:42 | 32.27984 | -11.48130 | 34963 ft | 404 kts | 211° |
| 2026-05-08 22:43 | 32.22861 | -11.50863 | 34964 ft | 404 kts | 212° |
| 2026-05-08 22:43 | 32.17738 | -11.53601 | 34970 ft | 404 kts | 212° |
| 2026-05-08 22:44 | 32.12618 | -11.56332 | 34974 ft | 404 kts | 212° |
| 2026-05-08 22:44 | 32.07498 | -11.59058 | 34971 ft | 403 kts | 212° |
| 2026-05-08 22:45 | 32.02386 | -11.61775 | 34978 ft | 403 kts | 212° |
| 2026-05-08 22:45 | 31.97244 | -11.64498 | 34980 ft | 402 kts | 212° |
| 2026-05-08 22:46 | 31.92147 | -11.67199 | 34979 ft | 401 kts | 212° |
| 2026-05-08 22:46 | 31.87058 | -11.69896 | 34986 ft | 401 kts | 212° |
| 2026-05-08 22:47 | 31.81970 | -11.72589 | 34988 ft | 401 kts | 212° |
| 2026-05-08 22:47 | 31.76882 | -11.75280 | 34991 ft | 401 kts | 212° |
| 2026-05-08 22:48 | 31.71802 | -11.77957 | 34995 ft | 400 kts | 213° |
| 2026-05-08 22:48 | 31.66733 | -11.80631 | 34992 ft | 399 kts | 213° |
| 2026-05-08 22:49 | 31.61664 | -11.83286 | 34990 ft | 399 kts | 213° |
| 2026-05-08 22:49 | 31.54080 | -11.87275 | 34992 ft | 398 kts | 213° |
| 2026-05-08 22:50 | 31.49035 | -11.89933 | 34999 ft | 398 kts | 213° |
| 2026-05-08 22:50 | 31.43988 | -11.92584 | 34996 ft | 397 kts | 213° |
| 2026-05-08 22:51 | 31.38937 | -11.95226 | 35005 ft | 397 kts | 213° |
| 2026-05-08 22:51 | 31.33858 | -11.97873 | 35006 ft | 396 kts | 213° |
| 2026-05-08 22:52 | 31.28831 | -12.00507 | 35004 ft | 396 kts | 214° |
| 2026-05-08 22:52 | 31.23804 | -12.03132 | 35006 ft | 396 kts | 214° |
| 2026-05-08 22:53 | 31.18780 | -12.05744 | 35005 ft | 395 kts | 214° |
| 2026-05-08 22:53 | 31.13760 | -12.08356 | 35000 ft | 395 kts | 214° |
| 2026-05-08 22:54 | 31.08738 | -12.10972 | 34999 ft | 395 kts | 214° |
| 2026-05-08 22:54 | 31.03721 | -12.13571 | 35003 ft | 395 kts | 214° |
| 2026-05-08 22:55 | 30.98706 | -12.16166 | 34997 ft | 394 kts | 214° |
| 2026-05-08 22:55 | 30.93696 | -12.18775 | 34998 ft | 394 kts | 214° |
| 2026-05-08 22:56 | 30.89533 | -12.20936 | 35005 ft | 394 kts | 214° |
| 2026-05-08 22:56 | 30.84515 | -12.23528 | 34992 ft | 395 kts | 214° |
| 2026-05-08 22:57 | 30.81999 | -12.24827 | 34656 ft | 393 kts | 214° |
| 2026-05-08 22:57 | 30.79488 | -12.26111 | 34338 ft | 385 kts | 214° |
| 2026-05-08 22:57 | 30.77045 | -12.27359 | 34027 ft | 382 kts | 214° |
| 2026-05-08 22:57 | 30.74622 | -12.28608 | 33674 ft | 381 kts | 214° |
| 2026-05-08 22:58 | 30.72202 | -12.29859 | 33336 ft | 382 kts | 214° |
| 2026-05-08 22:58 | 30.69770 | -12.31119 | 32990 ft | 383 kts | 214° |
| 2026-05-08 22:58 | 30.67331 | -12.32379 | 32651 ft | 385 kts | 213° |
| 2026-05-08 22:58 | 30.64876 | -12.33644 | 32326 ft | 387 kts | 213° |
| 2026-05-08 22:59 | 30.62414 | -12.34918 | 31990 ft | 388 kts | 213° |
| 2026-05-08 22:59 | 30.59941 | -12.36194 | 31661 ft | 390 kts | 213° |
| 2026-05-08 22:59 | 30.57453 | -12.37477 | 31339 ft | 392 kts | 213° |
| 2026-05-08 22:59 | 30.54947 | -12.38764 | 31024 ft | 394 kts | 213° |
| 2026-05-08 23:00 | 30.52431 | -12.40054 | 30700 ft | 396 kts | 213° |
| 2026-05-08 23:00 | 30.49902 | -12.41348 | 30383 ft | 398 kts | 213° |
| 2026-05-08 23:00 | 30.47368 | -12.42644 | 30080 ft | 400 kts | 213° |
| 2026-05-08 23:00 | 30.44814 | -12.43950 | 29712 ft | 402 kts | 212° |
| 2026-05-08 23:01 | 30.42249 | -12.45258 | 29345 ft | 404 kts | 212° |
| 2026-05-08 23:01 | 30.39666 | -12.46580 | 28992 ft | 406 kts | 212° |
| 2026-05-08 23:01 | 30.37080 | -12.47902 | 28641 ft | 408 kts | 212° |
| 2026-05-08 23:01 | 30.34473 | -12.49233 | 28301 ft | 411 kts | 212° |
| 2026-05-08 23:02 | 30.31849 | -12.50575 | 27958 ft | 413 kts | 212° |
| 2026-05-08 23:02 | 30.29220 | -12.51917 | 27639 ft | 415 kts | 212° |
| 2026-05-08 23:02 | 30.26573 | -12.53270 | 27290 ft | 417 kts | 211° |
| 2026-05-08 23:02 | 30.23917 | -12.54625 | 26957 ft | 418 kts | 211° |
| 2026-05-08 23:03 | 30.21243 | -12.55988 | 26628 ft | 420 kts | 211° |
| 2026-05-08 23:03 | 30.18561 | -12.57351 | 26309 ft | 422 kts | 211° |
| 2026-05-08 23:03 | 30.15865 | -12.58724 | 25989 ft | 424 kts | 211° |
| 2026-05-08 23:03 | 30.13166 | -12.60097 | 25677 ft | 425 kts | 211° |
| 2026-05-08 23:04 | 30.10419 | -12.61493 | 25358 ft | 427 kts | 211° |
| 2026-05-08 23:04 | 30.07692 | -12.62876 | 25054 ft | 428 kts | 210° |
| 2026-05-08 23:04 | 30.04963 | -12.64265 | 24753 ft | 430 kts | 210° |
| 2026-05-08 23:04 | 30.02224 | -12.65661 | 24452 ft | 431 kts | 210° |
| 2026-05-08 23:05 | 29.99477 | -12.67059 | 24147 ft | 432 kts | 210° |
| 2026-05-08 23:05 | 29.96717 | -12.68461 | 23858 ft | 434 kts | 210° |
| 2026-05-08 23:05 | 29.93954 | -12.69862 | 23554 ft | 433 kts | 210° |
| 2026-05-08 23:05 | 29.91200 | -12.71258 | 23205 ft | 432 kts | 210° |
| 2026-05-08 23:06 | 29.88448 | -12.72649 | 22868 ft | 432 kts | 210° |
| 2026-05-08 23:06 | 29.85684 | -12.74045 | 22512 ft | 436 kts | 209° |
| 2026-05-08 23:06 | 29.82908 | -12.75449 | 22171 ft | 437 kts | 209° |
| 2026-05-08 23:06 | 29.80128 | -12.76853 | 21836 ft | 437 kts | 209° |
| 2026-05-08 23:07 | 29.77341 | -12.78256 | 21501 ft | 436 kts | 209° |
| 2026-05-08 23:07 | 29.74613 | -12.79630 | 21173 ft | 435 kts | 209° |
| 2026-05-08 23:07 | 29.71838 | -12.81028 | 20843 ft | 435 kts | 209° |
| 2026-05-08 23:07 | 29.69073 | -12.82421 | 20530 ft | 434 kts | 209° |
| 2026-05-08 23:08 | 29.66308 | -12.83811 | 20211 ft | 434 kts | 208° |
| 2026-05-08 23:08 | 29.63545 | -12.85198 | 19892 ft | 433 kts | 208° |
| 2026-05-08 23:08 | 29.60778 | -12.86588 | 19587 ft | 433 kts | 208° |
| 2026-05-08 23:08 | 29.58028 | -12.87969 | 19282 ft | 432 kts | 208° |
| 2026-05-08 23:09 | 29.55275 | -12.89352 | 18978 ft | 431 kts | 208° |
| 2026-05-08 23:09 | 29.52525 | -12.90735 | 18673 ft | 430 kts | 208° |
| 2026-05-08 23:09 | 29.49785 | -12.92112 | 18383 ft | 429 kts | 208° |
| 2026-05-08 23:09 | 29.47049 | -12.93485 | 18042 ft | 428 kts | 208° |
| 2026-05-08 23:10 | 29.44327 | -12.94847 | 17699 ft | 427 kts | 208° |
| 2026-05-08 23:10 | 29.41607 | -12.96208 | 17357 ft | 425 kts | 208° |
| 2026-05-08 23:10 | 29.38901 | -12.97559 | 17029 ft | 424 kts | 208° |
| 2026-05-08 23:10 | 29.36200 | -12.98906 | 16697 ft | 423 kts | 208° |
| 2026-05-08 23:11 | 29.33512 | -13.00249 | 16375 ft | 422 kts | 208° |
| 2026-05-08 23:11 | 29.30821 | -13.01595 | 16040 ft | 421 kts | 208° |
| 2026-05-08 23:11 | 29.28101 | -13.02954 | 15730 ft | 420 kts | 208° |
| 2026-05-08 23:11 | 29.25461 | -13.04272 | 15417 ft | 419 kts | 208° |
| 2026-05-08 23:12 | 29.22757 | -13.05622 | 15103 ft | 418 kts | 207° |
| 2026-05-08 23:12 | 29.20088 | -13.06953 | 14786 ft | 418 kts | 207° |
| 2026-05-08 23:12 | 29.17425 | -13.08279 | 14486 ft | 417 kts | 207° |
| 2026-05-08 23:12 | 29.14766 | -13.09603 | 14183 ft | 416 kts | 207° |
| 2026-05-08 23:13 | 29.12107 | -13.10927 | 13882 ft | 416 kts | 207° |
| 2026-05-08 23:13 | 29.09461 | -13.12247 | 13559 ft | 415 kts | 207° |
| 2026-05-08 23:13 | 29.06820 | -13.13562 | 13285 ft | 413 kts | 207° |
| 2026-05-08 23:13 | 29.04186 | -13.14868 | 13025 ft | 412 kts | 207° |
| 2026-05-08 23:14 | 29.01564 | -13.16167 | 12775 ft | 411 kts | 207° |
| 2026-05-08 23:14 | 28.98949 | -13.17462 | 12522 ft | 409 kts | 207° |
| 2026-05-08 23:14 | 28.96339 | -13.18754 | 12274 ft | 408 kts | 207° |
| 2026-05-08 23:14 | 28.93738 | -13.20040 | 12021 ft | 407 kts | 207° |
| 2026-05-08 23:15 | 28.91146 | -13.21326 | 11774 ft | 406 kts | 207° |
| 2026-05-08 23:15 | 28.88564 | -13.22607 | 11530 ft | 404 kts | 207° |
| 2026-05-08 23:15 | 28.85990 | -13.23885 | 11290 ft | 403 kts | 207° |
| 2026-05-08 23:15 | 28.83421 | -13.25160 | 11122 ft | 402 kts | 207° |
| 2026-05-08 23:16 | 28.80859 | -13.26429 | 11000 ft | 402 kts | 207° |
| 2026-05-08 23:16 | 28.78287 | -13.27697 | 10881 ft | 402 kts | 207° |
| 2026-05-08 23:16 | 28.75726 | -13.28953 | 10763 ft | 401 kts | 207° |
| 2026-05-08 23:16 | 28.73160 | -13.30211 | 10645 ft | 401 kts | 207° |
| 2026-05-08 23:17 | 28.70598 | -13.31472 | 10526 ft | 401 kts | 207° |
| 2026-05-08 23:17 | 28.68047 | -13.32734 | 10410 ft | 400 kts | 207° |
| 2026-05-08 23:17 | 28.65493 | -13.34000 | 10294 ft | 399 kts | 207° |
| 2026-05-08 23:17 | 28.62947 | -13.35261 | 10173 ft | 399 kts | 207° |
| 2026-05-08 23:18 | 28.60402 | -13.36515 | 10062 ft | 398 kts | 206° |
| 2026-05-08 23:18 | 28.57856 | -13.37766 | 9935 ft | 398 kts | 206° |
| 2026-05-08 23:18 | 28.55316 | -13.39011 | 9806 ft | 397 kts | 206° |
| 2026-05-08 23:18 | 28.52784 | -13.40254 | 9678 ft | 397 kts | 206° |
| 2026-05-08 23:19 | 28.50247 | -13.41500 | 9538 ft | 396 kts | 206° |
| 2026-05-08 23:19 | 28.47721 | -13.42738 | 9418 ft | 396 kts | 206° |
| 2026-05-08 23:19 | 28.45222 | -13.43961 | 9279 ft | 383 kts | 206° |
| 2026-05-08 23:19 | 28.42795 | -13.45144 | 9142 ft | 366 kts | 206° |
| 2026-05-08 23:20 | 28.40539 | -13.46244 | 9032 ft | 350 kts | 207° |
| 2026-05-08 23:20 | 28.38318 | -13.47328 | 8879 ft | 336 kts | 207° |
| 2026-05-08 23:20 | 28.36219 | -13.48354 | 8760 ft | 322 kts | 207° |
| 2026-05-08 23:20 | 28.34199 | -13.49344 | 8630 ft | 310 kts | 207° |
| 2026-05-08 23:21 | 28.32260 | -13.50293 | 8502 ft | 298 kts | 207° |
| 2026-05-08 23:21 | 28.30385 | -13.51209 | 8374 ft | 288 kts | 207° |
| 2026-05-08 23:21 | 28.28553 | -13.52107 | 8224 ft | 286 kts | 207° |
| 2026-05-08 23:21 | 28.26731 | -13.53000 | 8074 ft | 285 kts | 207° |
| 2026-05-08 23:22 | 28.24913 | -13.53895 | 7928 ft | 285 kts | 207° |
| 2026-05-08 23:22 | 28.23101 | -13.54787 | 7777 ft | 284 kts | 207° |
| 2026-05-08 23:22 | 28.21286 | -13.55677 | 7631 ft | 284 kts | 207° |
| 2026-05-08 23:22 | 28.19473 | -13.56564 | 7482 ft | 284 kts | 207° |
| 2026-05-08 23:23 | 28.17659 | -13.57447 | 7335 ft | 284 kts | 207° |
| 2026-05-08 23:23 | 28.15858 | -13.58319 | 7190 ft | 277 kts | 207° |
| 2026-05-08 23:23 | 28.14138 | -13.59150 | 7043 ft | 263 kts | 207° |
| 2026-05-08 23:23 | 28.12487 | -13.59952 | 6921 ft | 255 kts | 207° |
| 2026-05-08 23:24 | 28.10891 | -13.60792 | 6799 ft | 250 kts | 216° |
| 2026-05-08 23:24 | 28.09539 | -13.61987 | 6686 ft | 246 kts | 227° |
| 2026-05-08 23:24 | 28.08267 | -13.63286 | 6565 ft | 246 kts | 226° |
| 2026-05-08 23:24 | 28.06987 | -13.64579 | 6447 ft | 246 kts | 226° |
| 2026-05-08 23:25 | 28.05708 | -13.65868 | 6317 ft | 246 kts | 226° |
| 2026-05-08 23:25 | 28.04431 | -13.67152 | 6191 ft | 245 kts | 226° |
| 2026-05-08 23:25 | 28.03157 | -13.68431 | 6069 ft | 245 kts | 226° |
| 2026-05-08 23:25 | 28.01888 | -13.69711 | 6028 ft | 244 kts | 227° |
| 2026-05-08 23:26 | 28.00849 | -13.71189 | 6028 ft | 238 kts | 245° |
| 2026-05-08 23:26 | 28.00256 | -13.72915 | 5918 ft | 234 kts | 260° |
| 2026-05-08 23:26 | 27.99875 | -13.74702 | 5786 ft | 234 kts | 260° |
| 2026-05-08 23:26 | 27.99485 | -13.76509 | 5657 ft | 234 kts | 259° |
| 2026-05-08 23:27 | 27.99097 | -13.78296 | 5534 ft | 233 kts | 259° |
| 2026-05-08 23:27 | 27.98710 | -13.80074 | 5405 ft | 233 kts | 259° |
| 2026-05-08 23:27 | 27.98353 | -13.81862 | 5282 ft | 231 kts | 268° |
| 2026-05-08 23:27 | 27.98570 | -13.83619 | 5161 ft | 226 kts | 296° |
| 2026-05-08 23:28 | 27.99505 | -13.85012 | 5031 ft | 224 kts | 323° |
| 2026-05-08 23:28 | 28.00926 | -13.85718 | 4910 ft | 227 kts | 351° |
| 2026-05-08 23:28 | 28.01969 | -13.85807 | 4829 ft | 228 kts | 355° |
| 2026-05-08 23:28 | 28.03557 | -13.85896 | 4606 ft | 228 kts | 355° |
| 2026-05-08 23:29 | 28.05141 | -13.85988 | 4290 ft | 228 kts | 355° |
| 2026-05-08 23:29 | 28.06720 | -13.86081 | 3975 ft | 227 kts | 355° |
| 2026-05-08 23:29 | 28.08298 | -13.86174 | 3666 ft | 227 kts | 356° |
| 2026-05-08 23:29 | 28.09859 | -13.86268 | 3515 ft | 225 kts | 356° |
| 2026-05-08 23:30 | 28.11433 | -13.86365 | 3395 ft | 227 kts | 356° |
| 2026-05-08 23:30 | 28.13013 | -13.86466 | 3266 ft | 227 kts | 355° |
| 2026-05-08 23:30 | 28.14589 | -13.86568 | 3138 ft | 227 kts | 355° |
| 2026-05-08 23:30 | 28.16183 | -13.86672 | 3007 ft | 226 kts | 355° |
| 2026-05-08 23:31 | 28.17753 | -13.86773 | 2882 ft | 226 kts | 355° |
| 2026-05-08 23:31 | 28.19313 | -13.86923 | 2778 ft | 225 kts | 349° |
| 2026-05-08 23:31 | 28.20872 | -13.87119 | 2718 ft | 225 kts | 356° |
| 2026-05-08 23:31 | 28.22433 | -13.87129 | 2752 ft | 222 kts | 360° |
| 2026-05-08 23:32 | 28.23989 | -13.87081 | 2724 ft | 223 kts | 360° |
| 2026-05-08 23:32 | 28.25539 | -13.87027 | 2707 ft | 218 kts | 0° |
| 2026-05-08 23:32 | 28.26993 | -13.86978 | 2708 ft | 202 kts | 0° |
| 2026-05-08 23:32 | 28.28372 | -13.86933 | 2724 ft | 196 kts | 360° |
| 2026-05-08 23:33 | 28.29727 | -13.86889 | 2733 ft | 194 kts | 0° |
| 2026-05-08 23:33 | 28.31034 | -13.86845 | 2584 ft | 177 kts | 359° |
| 2026-05-08 23:33 | 28.32201 | -13.86806 | 2383 ft | 158 kts | 360° |
| 2026-05-08 23:33 | 28.33265 | -13.86771 | 2173 ft | 150 kts | 359° |
| 2026-05-08 23:34 | 28.34287 | -13.86742 | 1940 ft | 145 kts | 358° |
| 2026-05-08 23:34 | 28.35294 | -13.86704 | 1799 ft | 146 kts | 359° |
| 2026-05-08 23:34 | 28.36319 | -13.86665 | 1600 ft | 148 kts | 359° |
| 2026-05-08 23:34 | 28.37349 | -13.86629 | 1398 ft | 150 kts | 358° |
| 2026-05-08 23:35 | 28.38364 | -13.86598 | 1196 ft | 145 kts | 359° |
| 2026-05-08 23:35 | 28.39390 | -13.86565 | 1017 ft | 149 kts | 358° |
| 2026-05-08 23:35 | 28.40433 | -13.86529 | 825 ft | 149 kts | 359° |
| 2026-05-08 23:35 | 28.41453 | -13.86499 | 603 ft | 145 kts | 1° |
| 2026-05-08 23:36 | 28.42451 | -13.86464 | 410 ft | 144 kts | 1° |
| 2026-05-08 23:36 | 28.43464 | -13.86435 | 235 ft | 148 kts | 2° |
| 2026-05-08 23:36 | 28.44494 | -13.86400 | 84 ft | 146 kts | 1° |
| 2026-05-08 23:36 | 28.45424 | -13.86372 | 74 ft | 110 kts | 1° |
| 2026-05-08 23:37 | 28.45902 | -13.86362 | 90 ft | 35 kts | 356° |
| 2026-05-08 23:37 | 28.46111 | -13.86451 | 97 ft | 26 kts | 329° |
| 2026-05-08 23:37 | 28.46141 | -13.86524 | 100 ft | 10 kts | 244° |
| 2026-05-08 23:37 | 28.46076 | -13.86544 | 97 ft | 11 kts | 181° |
| 2026-05-08 23:38 | 28.45993 | -13.86547 | 93 ft | 13 kts | 182° |
| 2026-05-08 23:38 | 28.45898 | -13.86551 | 92 ft | 14 kts | 182° |
| 2026-05-08 23:38 | 28.45796 | -13.86555 | 88 ft | 8 kts | 182° |
| 2026-05-08 23:38 | 28.45766 | -13.86555 | 90 ft | 0 kts | 181° |
| 2026-05-08 23:39 | 28.45737 | -13.86556 | 88 ft | 7 kts | 182° |
| 2026-05-08 23:40 | 28.45673 | -13.86558 | 86 ft | 12 kts | 181° |
| 2026-05-08 23:40 | 28.45570 | -13.86563 | 83 ft | 15 kts | 182° |
| 2026-05-08 23:40 | 28.45469 | -13.86566 | 81 ft | 14 kts | 181° |
| 2026-05-08 23:40 | 28.45386 | -13.86579 | 73 ft | 10 kts | 214° |
| 2026-05-08 23:41 | 28.45370 | -13.86648 | 77 ft | 10 kts | 271° |
| 2026-05-08 23:41 | 28.45355 | -13.86724 | 70 ft | 10 kts | 223° |
| 2026-05-08 23:41 | 28.45297 | -13.86739 | 72 ft | 8 kts | 185° |
| 2026-05-08 23:41 | 28.45268 | -13.86775 | 74 ft | 6 kts | 261° |
| 2026-05-08 23:42 | 28.45268 | -13.86810 | 74 ft | 3 kts | 271° |
| 2026-05-08 23:42 | 28.45269 | -13.86822 | 74 ft | 1 kts | 271° |
| 2026-05-08 23:42 | 28.45269 | -13.86829 | 74 ft | 0 kts | 271° |